Latest Weather Observations for Griffith

IDN60801

Issued at 9:33 am EDT Friday 6 March 2015 (issued every 30 minutes, with the page automatically refreshed every 10 minutes)

About weather observations | Map of weather stations | Latest weather observations for NSW | Other Formats
Station Details ID: 075041 Name: GRIFFITH AIRPORT AWS Lat: -34.25 Lon: 146.07 Height: 134.0 m
Data from the previous 72 hours. | See also: Recent months at Griffith
Date/Time
EDT
Temp
°C
App
Temp
°C
Dew
Point
Rel
Hum
%
Delta-T
°C
Wind Press
QNH
hPa
Press
MSL
hPa
Rain
since 9 am
mm
Dir
 
Spd
km/h
Gust
km/h
Spd
kts
Gust
kts
06/09:30am 14.8 9.7 3.9 48 5.0 SW 20 26 11 14 1014.5 1014.0 0.0
06/09:00am 14.4 9.1 3.2 47 5.1 SW 20 28 11 15 1014.4 1013.9 0.0
06/08:30am 13.6 8.4 2.5 47 4.9 WSW 19 24 10 13 1014.1 1013.6 0.0
06/08:00am 12.6 8.3 1.0 45 4.9 WSW 13 19 7 10 1014.0 1013.5 0.0
06/07:30am 10.9 7.3 0.6 49 4.3 WSW 9 9 5 5 1013.5 1013.0 0.0
06/07:00am 11.6 7.2 0.4 46 4.7 SW 13 17 7 9 1013.4 1012.9 0.0
06/06:30am 11.7 7.2 -0.1 44 4.8 SW 13 17 7 9 1013.0 1012.5 0.0
06/06:00am 12.0 7.1 -0.5 42 5.1 SW 15 17 8 9 1013.3 1012.8 0.0
06/05:30am 11.4 7.6 -0.7 43 4.9 WSW 9 13 5 7 1013.2 1012.7 0.0
06/05:00am 12.5 7.5 -1.4 38 5.6 SW 15 17 8 9 1013.2 1012.7 0.0
06/04:30am 11.3 7.8 -1.1 42 5.0 W 7 9 4 5 1013.2 1012.7 0.0
06/04:00am 10.5 7.3 -0.6 46 4.5 WSW 6 7 3 4 1013.5 1013.0 0.0
06/03:30am 11.0 7.8 -0.8 44 4.7 N 6 7 3 4 1013.5 1013.0 0.0
06/03:00am 11.1 9.0 -1.0 43 4.8 CALM 0 0 0 0 1013.7 1013.2 0.0
06/02:30am 11.5 9.0 -0.9 42 5.0 W 2 6 1 3 1014.1 1013.6 0.0
06/02:00am 10.7 8.4 -2.0 41 4.9 CALM 0 0 0 0 1014.2 1013.7 0.0
06/01:30am 10.6 8.2 -2.8 39 5.1 CALM 0 0 0 0 1014.5 1014.0 0.0
06/01:00am 12.0 9.4 -1.9 38 5.5 NNW 2 7 1 4 1014.8 1014.4 0.0
06/12:30am 11.1 8.7 -3.0 37 5.4 CALM 0 0 0 0 1014.9 1014.5 0.0
06/12:00am 11.8 8.3 -2.8 36 5.6 NW 6 9 3 5 1015.1 1014.7 0.0
 
Date/Time
EDT
Temp
°C
App
Temp
°C
Dew
Point
Rel
Hum
%
Delta-T
°C
Wind Press
QNH
hPa
Press
MSL
hPa
Rain
since 9 am
mm
Dir
 
Spd
km/h
Gust
km/h
Spd
kts
Gust
kts
05/11:30pm 12.4 9.7 -2.6 35 5.9 N 2 6 1 3 1015.4 1015.0 0.0
05/11:00pm 13.1 10.8 -2.4 34 6.1 CALM 0 0 0 0 1015.6 1015.2 0.0
05/10:30pm 14.0 10.9 -2.8 31 6.7 NW 4 7 2 4 1015.8 1015.3 0.0
05/10:00pm 14.2 11.7 -3.6 29 6.9 CALM 0 0 0 0 1015.5 1015.1 0.0
05/09:30pm 16.9 13.4 -2.7 26 8.0 WSW 6 7 3 4 1015.4 1015.0 0.0
05/09:00pm 18.3 14.3 -2.6 24 8.7 SW 9 11 5 6 1015.2 1014.8 0.0
05/08:30pm 19.4 14.6 -2.8 22 9.3 SSW 13 19 7 10 1015.0 1014.6 0.0
05/08:00pm 20.2 15.3 -3.4 20 9.8 S 13 20 7 11 1014.6 1014.1 0.0
05/07:30pm 21.2 14.9 -4.0 18 10.5 SSW 20 26 11 14 1014.3 1013.8 0.0
05/07:00pm 22.1 14.2 -4.9 16 11.1 SSW 28 39 15 21 1014.1 1013.6 0.0
05/06:30pm 22.6 14.7 -4.5 16 11.3 SSW 28 39 15 21 1014.0 1013.5 0.0
05/06:00pm 23.0 16.0 -3.3 17 11.2 SW 24 33 13 18 1013.8 1013.3 0.0
05/05:30pm 23.0 15.2 -4.1 16 11.4 SSW 28 43 15 23 1013.8 1013.3 0.0
05/05:00pm 22.8 14.7 -3.5 17 11.2 S 30 41 16 22 1013.8 1013.3 0.0
05/04:30pm 22.9 14.4 -3.4 17 11.2 SSW 32 44 17 24 1014.1 1013.6 0.0
05/04:02pm 22.4 14.7 -3.1 18 10.9 SSW 28 46 15 25 1014.4 1013.9 0.0
05/04:00pm 22.5 14.4 -3.0 18 10.9 SSW 30 46 16 25 1014.4 1013.9 0.0
05/03:30pm 21.9 13.5 -2.7 19 10.5 SSW 32 44 17 24 1014.9 1014.5 0.0
05/03:17pm 22.7 15.0 -2.8 18 11.0 SW 28 48 15 26 1014.9 1014.5 0.0
05/03:00pm 22.3 14.2 -3.1 18 10.8 SW 30 39 16 21 1015.1 1014.7 0.0
05/02:30pm 22.0 14.3 -2.7 19 10.6 SSW 28 43 15 23 1015.6 1015.2 0.0
05/02:05pm 21.3 13.6 -3.2 19 10.3 SSW 28 50 15 27 1015.6 1015.2 0.0
05/02:00pm 20.7 13.1 -2.4 21 9.8 S 28 39 15 21 1015.5 1015.1 0.0
05/01:30pm 20.8 13.2 -2.3 21 9.9 S 28 43 15 23 1015.9 1015.4 0.0
05/01:00pm 19.7 11.3 -2.6 22 9.4 S 32 44 17 24 1016.3 1015.8 0.0
05/12:30pm 19.7 10.6 -3.9 20 9.7 SSW 35 56 19 30 1016.4 1015.9 0.0
05/12:04pm 19.7 11.5 -3.9 20 9.7 SSW 30 48 16 26 1016.5 1016.0 0.0
05/12:00pm 20.1 12.3 -1.1 24 9.2 SSW 30 44 16 24 1016.5 1016.0 0.0
05/11:30am 19.9 11.7 -0.7 25 9.0 SSW 32 43 17 23 1016.6 1016.1 0.0
05/11:00am 19.2 11.3 0.8 29 8.2 SSW 32 46 17 25 1016.6 1016.1 0.0
05/10:30am 18.5 9.9 2.4 34 7.4 SSW 37 50 20 27 1016.3 1015.8 0.0
05/10:16am 18.2 10.0 2.5 35 7.2 SSW 35 54 19 29 1016.2 1015.7 0.0
05/10:00am 18.2 9.7 3.3 37 7.0 SSW 37 52 20 28 1016.0 1015.5 0.0
05/09:30am 17.1 10.2 8.8 58 4.3 SSW 35 48 19 26 1015.3 1014.9 0.0
05/09:00am 18.0 11.9 9.6 58 4.4 SSW 32 46 17 25 1015.0 1014.6 -
05/08:33am 17.9 11.6 9.8 59 4.3 SW 33 52 18 28 1014.8 1014.4 -
05/08:30am 17.9 11.8 9.8 59 4.3 SW 32 46 17 25 1014.8 1014.4 -
05/08:00am 16.9 11.9 9.6 62 3.8 WSW 26 35 14 19 1014.4 1013.9 -
05/07:30am 16.2 11.5 9.4 64 3.5 WSW 24 32 13 17 1013.8 1013.3 -
05/07:00am 15.7 11.9 8.9 64 3.5 WSW 19 30 10 16 1013.4 1012.9 -
05/06:30am 15.5 12.0 8.7 64 3.5 WSW 17 22 9 12 1012.9 1012.4 -
05/06:00am 15.8 12.3 8.8 63 3.6 WSW 17 22 9 12 1012.6 1012.1 -
05/05:30am 16.6 12.2 8.8 60 4.0 WSW 22 28 12 15 1012.5 1012.0 -
05/05:00am 17.1 11.5 8.8 58 4.3 SW 28 35 15 19 1012.5 1012.0 -
05/04:30am 17.4 11.4 8.8 57 4.5 SW 30 41 16 22 1012.3 1011.8 -
05/04:00am 17.8 12.5 8.4 54 4.9 WSW 26 35 14 19 1012.1 1011.6 -
05/03:30am 18.3 13.1 7.4 49 5.5 SW 24 33 13 18 1011.9 1011.4 -
05/03:00am 18.6 13.8 5.8 43 6.3 SW 20 30 11 16 1011.8 1011.3 0.0
05/02:30am 18.8 13.2 3.4 36 7.3 SW 22 30 12 16 1011.9 1011.4 -
05/02:00am 19.5 13.3 2.4 32 8.0 WSW 24 37 13 20 1011.7 1011.2 -
05/01:30am 18.4 13.7 1.0 31 7.8 WSW 15 17 8 9 1011.5 1011.0 -
05/01:00am 18.4 14.1 1.0 31 7.8 WSW 13 15 7 8 1011.6 1011.1 -
05/12:30am 19.0 14.7 1.1 30 8.1 WSW 13 17 7 9 1011.6 1011.1 -
05/12:00am 19.9 15.1 0.4 27 8.7 SW 15 17 8 9 1011.5 1011.0 -
 
Date/Time
EDT
Temp
°C
App
Temp
°C
Dew
Point
Rel
Hum
%
Delta-T
°C
Wind Press
QNH
hPa
Press
MSL
hPa
Rain
since 9 am
mm
Dir
 
Spd
km/h
Gust
km/h
Spd
kts
Gust
kts
04/11:30pm 20.8 16.1 0.6 26 9.2 SW 15 19 8 10 1011.6 1011.1 -
04/11:00pm 21.7 16.2 0.8 25 9.6 SW 19 20 10 11 1011.9 1011.4 -
04/10:30pm 22.3 16.8 0.8 24 9.9 WSW 19 24 10 13 1011.9 1011.4 -
04/10:00pm 22.1 17.1 1.2 25 9.7 WSW 17 19 9 10 1011.9 1011.4 -
04/09:30pm 21.9 18.4 1.5 26 9.5 WSW 9 11 5 6 1011.8 1011.3 -
04/09:00pm 22.6 19.2 2.1 26 9.7 W 9 11 5 6 1011.6 1011.1 0.0
04/08:30pm 24.6 20.4 1.5 22 11.0 WSW 13 15 7 8 1011.4 1010.9 -
04/08:00pm 26.3 21.1 0.1 18 12.3 WSW 17 24 9 13 1011.1 1010.6 -
04/07:30pm 28.3 21.8 0.1 16 13.4 WSW 24 30 13 16 1010.8 1010.3 -
04/07:00pm 29.4 22.5 0.1 15 14.1 WSW 26 35 14 19 1010.7 1010.2 -
04/06:30pm 30.2 23.4 0.7 15 14.4 WSW 26 35 14 19 1010.6 1010.1 -
04/06:00pm 30.7 24.7 1.1 15 14.6 WSW 22 32 12 17 1010.6 1010.1 -
04/05:30pm 30.5 24.0 0.0 14 14.7 WSW 24 33 13 18 1010.6 1010.1 -
04/05:00pm 31.1 24.5 -0.5 13 15.2 SW 24 33 13 18 1010.7 1010.2 -
04/04:30pm 30.8 24.5 -0.8 13 15.1 W 22 33 12 18 1010.9 1010.4 -
04/04:00pm 31.2 24.9 -4.0 10 15.9 W 20 32 11 17 1011.2 1010.7 -
04/03:30pm 31.2 26.1 0.6 14 15.0 WSW 17 32 9 17 1011.4 1010.9 -
04/03:00pm 30.7 25.4 2.0 16 14.3 SW 19 30 10 16 1012.0 1011.5 -
04/02:30pm 30.3 25.4 4.1 19 13.5 SW 19 32 10 17 1012.4 1011.9 -
04/02:00pm 29.8 24.5 2.9 18 13.6 WSW 20 32 11 17 1012.7 1012.2 -
04/01:30pm 29.4 24.6 5.5 22 12.6 SW 20 35 11 19 1013.0 1012.5 -
04/01:00pm 28.9 24.8 6.3 24 12.0 SW 17 30 9 16 1013.4 1012.9 -
04/12:30pm 29.1 25.7 5.9 23 12.3 SW 13 26 7 14 1014.0 1013.5 -
04/11:30am 27.0 24.0 5.9 26 11.0 S 11 19 6 10 1014.8 1014.4 0.0
04/11:00am 25.7 22.1 4.8 26 10.6 SSW 13 17 7 9 1014.8 1014.4 0.0
04/10:30am 25.7 22.2 5.3 27 10.5 S 13 19 7 10 1015.0 1014.6 0.0
04/10:00am 23.7 20.3 6.0 32 9.1 S 13 17 7 9 1015.0 1014.6 0.0
04/09:30am 22.4 19.4 5.8 34 8.4 S 11 15 6 8 1014.7 1014.2 0.0
04/09:00am 21.7 18.9 5.2 34 8.2 SSE 9 13 5 7 1014.4 1013.9 0.0
04/08:30am 20.0 19.2 6.4 41 6.9 CALM 0 0 0 0 1014.2 1013.7 0.0
04/08:17am 18.9 18.1 6.4 44 6.3 CALM 0 0 0 0 1014.1 1013.6 0.0
04/08:11am 18.8 17.8 5.6 42 6.5 CALM 0 0 0 0 1014.0 1013.5 0.0
04/08:00am 18.5 17.5 5.4 42 6.4 CALM 0 0 0 0 1013.9 1013.4 0.0
04/07:33am 16.4 15.4 5.7 49 5.2 CALM 0 0 0 0 1013.6 1013.1 0.0
04/07:30am 16.2 15.2 5.8 50 5.0 CALM 0 0 0 0 1013.5 1013.0 0.0
04/07:27am 15.9 14.9 5.8 51 4.9 CALM 0 0 0 0 1013.5 1013.0 0.0
04/07:07am 14.8 13.7 5.1 52 4.6 CALM 0 0 0 0 1013.2 1012.7 0.0
04/07:00am 14.9 13.7 4.6 50 4.8 CALM 0 0 0 0 1013.1 1012.6 0.0
04/06:30am 14.9 13.6 4.0 48 5.0 CALM 0 0 0 0 1012.9 1012.4 0.0
04/06:00am 16.0 14.8 4.4 46 5.5 CALM 0 0 0 0 1012.5 1012.0 0.0
04/05:30am 16.6 15.3 4.3 44 5.8 CALM 0 7 0 4 1012.4 1011.9 0.0
04/05:00am 16.6 15.3 4.3 44 5.8 CALM 0 0 0 0 1012.0 1011.5 0.0
04/04:30am 17.6 16.4 4.5 42 6.3 CALM 0 0 0 0 1012.3 1011.8 0.0
04/04:00am 18.3 17.1 4.5 40 6.6 CALM 0 0 0 0 1012.2 1011.7 0.0
04/03:30am 18.4 17.1 4.2 39 6.8 CALM 0 0 0 0 1012.4 1011.9 0.0
04/03:00am 18.5 16.8 3.9 38 6.9 N 2 6 1 3 1012.7 1012.2 0.0
04/02:30am 18.8 17.3 3.0 35 7.4 CALM 0 0 0 0 1013.0 1012.5 0.0
04/02:00am 21.0 19.2 3.7 32 8.3 ESE 2 7 1 4 1013.2 1012.7 0.0
04/01:30am 24.1 20.2 3.4 26 10.1 S 13 19 7 10 1013.0 1012.5 0.0
04/01:00am 24.6 20.3 3.3 25 10.5 S 15 20 8 11 1013.1 1012.6 0.0
04/12:30am 24.1 19.8 3.4 26 10.1 S 15 22 8 12 1013.2 1012.7 0.0
04/12:00am 24.5 20.2 3.2 25 10.4 S 15 22 8 12 1013.4 1012.9 0.0
 
Date/Time
EDT
Temp
°C
App
Temp
°C
Dew
Point
Rel
Hum
%
Delta-T
°C
Wind Press
QNH
hPa
Press
MSL
hPa
Rain
since 9 am
mm
Dir
 
Spd
km/h
Gust
km/h
Spd
kts
Gust
kts
03/11:30pm 24.6 20.3 3.3 25 10.5 SSW 15 20 8 11 1013.4 1012.9 0.0
03/11:00pm 25.2 21.3 3.2 24 10.8 SSW 13 20 7 11 1013.3 1012.8 0.0
03/10:30pm 25.7 21.4 3.0 23 11.2 SSW 15 20 8 11 1013.3 1012.8 0.0
03/10:00pm 26.4 21.7 3.0 22 11.6 SSW 17 20 9 11 1013.2 1012.7 0.0
03/09:30pm 27.4 22.1 1.8 19 12.5 SSW 19 26 10 14 1013.1 1012.6 0.0
03/09:00pm 26.4 22.6 1.7 20 11.9 SSW 11 13 6 7 1012.5 1012.0 0.0
03/08:30pm 27.6 24.1 1.2 18 12.7 SSW 9 13 5 7 1012.3 1011.8 0.0
03/08:00pm 28.8 25.2 0.5 16 13.6 SSW 9 13 5 7 1012.2 1011.7 0.0
03/07:30pm 30.7 26.1 -0.8 13 15.0 SW 13 17 7 9 1011.9 1011.4 0.0
03/07:00pm 31.9 26.8 -2.2 11 16.0 SW 15 22 8 12 1011.7 1011.2 0.0
03/06:30pm 32.0 26.6 1.2 14 15.3 SSW 19 24 10 13 1011.6 1011.1 0.0
03/06:00pm 31.9 27.6 1.1 14 15.3 S 13 24 7 13 1011.5 1011.0 0.0
03/05:30pm 32.6 26.9 0.6 13 15.8 SSW 20 24 11 13 1011.4 1010.9 0.0
03/05:00pm 32.5 28.1 2.5 15 15.3 SW 15 24 8 13 1011.5 1011.0 0.0
03/04:30pm 32.8 27.3 0.8 13 15.9 SSW 19 28 10 15 1011.7 1011.2 0.0
03/04:00pm 32.6 27.4 2.6 15 15.3 SSW 19 28 10 15 1011.7 1011.2 0.0
03/03:30pm 32.7 26.6 2.7 15 15.3 S 24 35 13 19 1011.9 1011.4 0.0
03/03:00pm 32.0 28.0 4.7 18 14.4 SSW 15 32 8 17 1012.3 1011.8 0.0
03/02:30pm 31.2 26.6 6.3 21 13.4 SW 20 32 11 17 1012.6 1012.1 0.0
03/02:00pm 31.8 28.0 7.5 22 13.4 SSW 17 28 9 15 1013.0 1012.5 0.0
03/01:30pm 30.5 26.9 8.3 25 12.3 SSW 17 26 9 14 1013.2 1012.7 0.0
03/01:00pm 29.9 26.2 9.4 28 11.5 SSW 19 26 10 14 1013.4 1012.9 0.0
03/12:30pm 28.6 26.1 11.2 34 10.0 SSE 15 20 8 11 1013.8 1013.3 0.0
03/12:00pm 27.2 24.4 11.2 36 9.2 SSW 17 24 9 13 1014.3 1013.8 0.0
03/11:30am 26.6 24.4 10.7 37 9.0 SW 13 19 7 10 1014.4 1013.9 0.0
03/11:00am 25.5 24.0 10.5 39 8.4 W 9 13 5 7 1014.5 1014.0 0.0
03/10:30am 24.3 23.2 10.6 42 7.7 NW 7 9 4 5 1014.3 1013.8 0.0
03/10:00am 23.9 23.6 10.2 42 7.6 WNW 2 9 1 5 1014.2 1013.7 0.0

Other Formats:

Comma delimited format used in spreadsheet applications
http://www.bom.gov.au/fwo/IDN60801/IDN60801.95704.axf

JavaScript Object Notation format (JSON) in row-major order
http://www.bom.gov.au/fwo/IDN60801/IDN60801.95704.json